createdAt,value
2023-05-04T00:00:57.745Z,16.02
2023-05-04T00:03:24.389Z,15.50
2023-05-04T00:05:51.130Z,14.25
2023-05-04T00:08:17.686Z,12.43
2023-05-04T00:10:44.230Z,15.50
2023-05-04T00:13:10.841Z,13.73
2023-05-04T00:15:37.468Z,12.88
2023-05-04T00:18:04.032Z,10.80
2023-05-04T00:20:30.515Z,15.27
2023-05-04T00:22:56.973Z,12.48
2023-05-04T00:25:23.427Z,12.88
2023-05-04T00:27:50.022Z,12.88
2023-05-04T00:30:16.504Z,13.93
2023-05-04T00:32:43.030Z,16.13
2023-05-04T00:35:09.677Z,14.43
2023-05-04T00:37:36.287Z,16.42
2023-05-04T00:40:03.221Z,15.10
2023-05-04T00:42:29.925Z,12.68
2023-05-04T00:44:56.344Z,16.00
2023-05-04T00:47:23.135Z,12.43
2023-05-04T00:49:51.761Z,13.38
2023-05-04T00:52:20.128Z,13.07
2023-05-04T00:54:47.269Z,12.57
2023-05-04T00:57:15.809Z,15.65
2023-05-04T00:59:42.580Z,13.45
2023-05-04T01:02:09.180Z,14.20
2023-05-04T01:04:35.846Z,14.88
2023-05-04T01:07:27.345Z,13.15
2023-05-04T01:12:33.845Z,16.55
2023-05-04T01:15:00.655Z,14.15
2023-05-04T01:17:28.874Z,16.48
2023-05-04T01:19:56.195Z,14.32
2023-05-04T01:22:23.138Z,17.80
2023-05-04T01:24:50.651Z,20.58
2023-05-04T01:27:29.697Z,17.60
2023-05-04T01:30:08.835Z,17.10
2023-05-04T01:32:37.284Z,18.42
2023-05-04T01:35:03.982Z,14.48
2023-05-04T01:37:30.610Z,19.27
2023-05-04T01:39:57.033Z,15.88
2023-05-04T01:42:23.653Z,20.45
2023-05-04T01:44:50.121Z,16.48
2023-05-04T01:47:17.413Z,17.17
2023-05-04T01:49:43.977Z,14.88
2023-05-04T01:52:10.763Z,15.40
2023-05-04T01:54:37.244Z,15.98
2023-05-04T01:57:03.980Z,18.25
2023-05-04T01:59:30.439Z,15.00
2023-05-04T02:01:57.028Z,15.00
2023-05-04T02:04:23.561Z,15.93
2023-05-04T02:06:50.038Z,19.85
2023-05-04T02:09:17.379Z,16.75
2023-05-04T02:11:44.148Z,20.25
2023-05-04T02:14:10.603Z,20.10
2023-05-04T02:16:37.792Z,18.08
2023-05-04T02:19:04.279Z,17.92
2023-05-04T02:21:30.964Z,15.00
2023-05-04T02:23:57.386Z,19.08
2023-05-04T02:26:24.591Z,18.92
2023-05-04T02:28:51.108Z,20.42
2023-05-04T02:31:17.655Z,19.50
2023-05-04T02:33:44.170Z,18.23
2023-05-04T02:36:10.679Z,18.80
2023-05-04T02:38:37.122Z,20.80
2023-05-04T02:41:03.690Z,19.08
2023-05-04T02:43:30.122Z,16.48
2023-05-04T02:45:56.733Z,17.05
2023-05-04T02:48:24.904Z,19.65
2023-05-04T02:50:52.798Z,18.73
2023-05-04T02:53:19.254Z,17.60
2023-05-04T02:55:45.663Z,18.70
2023-05-04T02:58:12.074Z,18.35
2023-05-04T03:00:38.565Z,17.98
2023-05-04T03:03:05.061Z,22.63
2023-05-04T03:05:31.651Z,21.85
2023-05-04T03:07:58.186Z,19.15
2023-05-04T03:10:24.754Z,19.88
2023-05-04T03:12:51.467Z,19.13
2023-05-04T03:15:19.008Z,26.45
2023-05-04T03:17:45.571Z,21.75
2023-05-04T03:20:13.053Z,18.02
2023-05-04T03:22:40.950Z,21.10
2023-05-04T03:25:08.316Z,20.80
2023-05-04T03:27:34.825Z,21.48
2023-05-04T03:30:01.900Z,25.00
2023-05-04T03:32:28.582Z,24.13
2023-05-04T03:34:55.023Z,21.08
2023-05-04T03:37:23.637Z,21.70
2023-05-04T03:39:50.146Z,23.15
2023-05-04T03:42:16.757Z,21.75
2023-05-04T03:44:43.160Z,19.65
2023-05-04T03:47:09.572Z,23.50
2023-05-04T03:49:35.996Z,23.80
2023-05-04T03:52:02.558Z,22.35
2023-05-04T03:54:29.031Z,20.75
2023-05-04T03:56:55.736Z,23.42
2023-05-04T03:59:22.791Z,22.55
2023-05-04T04:01:49.875Z,21.27
2023-05-04T04:04:16.374Z,22.20
2023-05-04T04:06:43.595Z,26.35
2023-05-04T04:09:10.348Z,24.35
2023-05-04T04:11:37.026Z,25.00
2023-05-04T04:14:03.625Z,21.42
2023-05-04T04:16:30.806Z,27.17
2023-05-04T04:18:58.053Z,24.77
2023-05-04T04:21:24.503Z,23.60
2023-05-04T04:23:50.915Z,26.27
2023-05-04T04:26:17.346Z,24.48
2023-05-04T04:28:44.868Z,22.60
2023-05-04T04:31:11.339Z,24.55
2023-05-04T04:33:37.843Z,24.10
2023-05-04T04:36:04.330Z,29.33
2023-05-04T04:38:30.880Z,32.15
2023-05-04T04:40:57.276Z,28.65
2023-05-04T04:43:23.679Z,25.98
2023-05-04T04:45:50.085Z,28.30
2023-05-04T04:48:16.892Z,29.08
2023-05-04T04:50:43.321Z,30.08
2023-05-04T04:53:09.765Z,29.90
2023-05-04T04:55:36.274Z,30.70
2023-05-04T04:58:02.759Z,30.83
2023-05-04T05:00:29.793Z,31.92
2023-05-04T05:02:56.471Z,29.92
2023-05-04T05:05:23.012Z,32.08
2023-05-04T05:07:49.494Z,31.80
2023-05-04T05:10:16.073Z,33.10
2023-05-04T05:12:42.598Z,37.55
2023-05-04T05:15:09.453Z,27.38
2023-05-04T05:17:37.491Z,35.58
2023-05-04T05:20:11.804Z,30.27
2023-05-04T05:22:38.899Z,27.40
2023-05-04T05:25:06.968Z,29.08
2023-05-04T05:27:36.745Z,28.83
2023-05-04T05:30:05.728Z,28.60
2023-05-04T05:32:32.938Z,36.25
2023-05-04T05:34:59.478Z,32.67
2023-05-04T05:37:26.049Z,31.58
2023-05-04T05:39:52.465Z,30.45
2023-05-04T05:42:19.346Z,32.42
2023-05-04T05:44:45.889Z,30.80
2023-05-04T05:47:12.398Z,30.17
2023-05-04T05:49:38.946Z,34.40
2023-05-04T05:52:05.616Z,32.97
2023-05-04T05:54:32.575Z,32.05
2023-05-04T05:56:59.078Z,29.27
2023-05-04T05:59:25.548Z,28.85
2023-05-04T06:01:52.017Z,27.40
2023-05-04T06:04:18.512Z,26.17
2023-05-04T06:06:45.897Z,27.35
2023-05-04T06:09:13.197Z,29.60
2023-05-04T06:11:39.659Z,29.17
2023-05-04T06:14:06.089Z,26.27
2023-05-04T06:16:32.665Z,27.05
2023-05-04T06:18:59.108Z,28.02
2023-05-04T06:21:25.839Z,28.85
2023-05-04T06:23:52.276Z,26.08
2023-05-04T06:26:20.067Z,28.60
2023-05-04T06:28:46.647Z,34.63
2023-05-04T06:31:13.615Z,30.25
2023-05-04T06:33:40.162Z,25.58
2023-05-04T06:36:06.884Z,28.33
2023-05-04T06:38:34.716Z,28.70
2023-05-04T06:41:03.310Z,27.52
2023-05-04T06:43:29.759Z,27.02
2023-05-04T06:45:56.811Z,29.15
2023-05-04T06:48:23.290Z,29.42
2023-05-04T06:50:49.771Z,26.50
2023-05-04T06:53:16.696Z,26.67
2023-05-04T06:55:43.126Z,28.25
2023-05-04T06:58:09.610Z,25.67
2023-05-04T07:00:36.147Z,25.70
2023-05-04T07:03:02.706Z,25.73
2023-05-04T07:05:29.535Z,23.70
2023-05-04T07:07:56.334Z,23.52
2023-05-04T07:10:23.149Z,25.40
2023-05-04T07:12:49.636Z,23.08
2023-05-04T07:15:16.165Z,23.05
2023-05-04T07:17:42.627Z,22.67
2023-05-04T07:20:09.527Z,27.98
2023-05-04T07:22:36.000Z,25.02
2023-05-04T07:25:03.032Z,22.33
2023-05-04T07:27:29.611Z,22.70
2023-05-04T07:29:56.577Z,23.15
2023-05-04T07:32:23.861Z,28.08
2023-05-04T07:34:50.377Z,20.05
2023-05-04T07:37:16.883Z,22.55
2023-05-04T07:39:43.333Z,23.10
2023-05-04T07:42:11.630Z,24.63
2023-05-04T07:44:38.224Z,22.25
2023-05-04T07:47:04.771Z,22.08
2023-05-04T07:49:31.453Z,20.20
2023-05-04T07:51:57.881Z,19.63
2023-05-04T07:54:24.323Z,18.75
2023-05-04T07:56:50.887Z,21.13
2023-05-04T07:59:17.911Z,21.30
2023-05-04T08:01:44.758Z,22.25
2023-05-04T08:04:11.208Z,19.60
2023-05-04T08:06:39.744Z,17.00
2023-05-04T08:09:06.655Z,18.52
2023-05-04T08:11:34.761Z,18.67
2023-05-04T08:14:01.771Z,19.08
2023-05-04T08:16:29.320Z,18.60
2023-05-04T08:18:59.728Z,20.20
2023-05-04T08:21:26.189Z,20.55
2023-05-04T08:23:52.998Z,21.65
2023-05-04T08:26:20.092Z,19.02
2023-05-04T08:28:46.640Z,18.23
2023-05-04T08:31:13.502Z,16.85
2023-05-04T08:33:40.034Z,16.85
2023-05-04T08:36:08.416Z,17.13
2023-05-04T08:38:35.031Z,19.77
2023-05-04T08:41:05.521Z,20.95
2023-05-04T08:43:36.315Z,16.38
2023-05-04T08:46:03.979Z,17.45
2023-05-04T08:48:33.590Z,19.52
2023-05-04T08:51:01.007Z,18.02
2023-05-04T08:53:29.902Z,15.60
2023-05-04T08:55:59.094Z,18.55
2023-05-04T08:58:27.063Z,16.48
2023-05-04T09:00:54.742Z,16.52
2023-05-04T09:03:21.645Z,17.10
2023-05-04T09:05:50.952Z,20.02
2023-05-04T09:08:18.458Z,17.15
2023-05-04T09:10:44.933Z,19.13
2023-05-04T09:13:12.167Z,17.80
2023-05-04T09:15:38.647Z,19.40
2023-05-04T09:18:06.604Z,18.80
2023-05-04T09:20:47.258Z,16.30
2023-05-04T09:23:15.228Z,18.58
2023-05-04T09:25:50.742Z,16.02
2023-05-04T09:28:18.628Z,19.38
2023-05-04T09:30:48.032Z,15.63
2023-05-04T09:33:25.592Z,18.23
2023-05-04T09:35:51.993Z,15.80
2023-05-04T09:38:28.763Z,15.43
2023-05-04T09:40:55.950Z,15.07
2023-05-04T09:43:24.343Z,18.13
2023-05-04T09:45:51.519Z,13.90
2023-05-04T09:48:26.978Z,14.90
2023-05-04T09:51:02.481Z,17.48
2023-05-04T09:53:30.433Z,18.95
2023-05-04T09:56:02.543Z,17.13
2023-05-04T09:58:30.863Z,17.27
2023-05-04T10:01:00.894Z,17.50
2023-05-04T10:03:28.214Z,17.73
2023-05-04T10:05:54.954Z,15.77
2023-05-04T10:08:22.343Z,16.75
2023-05-04T10:10:48.922Z,17.38
2023-05-04T10:13:16.952Z,14.48
2023-05-04T10:16:00.061Z,16.25
2023-05-04T10:18:54.632Z,15.57
2023-05-04T10:21:44.962Z,17.38
2023-05-04T10:24:33.204Z,15.13
2023-05-04T10:27:08.928Z,16.95
2023-05-04T10:29:36.405Z,14.02
2023-05-04T10:32:03.614Z,16.38
2023-05-04T10:34:32.266Z,16.58
2023-05-04T10:36:59.968Z,14.32
2023-05-04T10:39:29.309Z,16.67
2023-05-04T10:42:07.012Z,14.35
2023-05-04T10:44:49.678Z,14.27
2023-05-04T10:47:36.902Z,15.52
2023-05-04T10:50:06.342Z,18.45
2023-05-04T10:52:45.060Z,15.32
2023-05-04T10:55:11.662Z,15.65
2023-05-04T10:57:49.529Z,14.65
2023-05-04T11:00:17.191Z,14.00
2023-05-04T11:02:44.205Z,13.45
2023-05-04T11:05:17.489Z,12.88
2023-05-04T11:07:44.335Z,14.65
2023-05-04T11:10:22.337Z,14.23
2023-05-04T11:12:49.018Z,13.63
2023-05-04T11:15:15.724Z,14.15
2023-05-04T11:17:46.483Z,10.85
2023-05-04T11:20:28.315Z,14.80
2023-05-04T11:22:54.979Z,11.73
2023-05-04T11:25:28.751Z,11.75
2023-05-04T11:27:55.734Z,14.18
2023-05-04T11:30:30.472Z,15.27
2023-05-04T11:32:59.213Z,12.93
2023-05-04T11:35:26.127Z,12.18
2023-05-04T11:37:52.781Z,12.50
2023-05-04T11:40:22.366Z,12.88
2023-05-04T11:42:52.425Z,12.77
2023-05-04T11:45:22.043Z,14.27
2023-05-04T11:47:50.075Z,10.68
2023-05-04T11:50:18.739Z,11.00
2023-05-04T11:52:45.694Z,13.35
2023-05-04T11:55:24.216Z,10.07
2023-05-04T11:58:07.566Z,11.77
2023-05-04T12:00:49.096Z,14.80
2023-05-04T12:03:17.977Z,9.70
2023-05-04T12:05:56.019Z,12.00
2023-05-04T12:08:27.661Z,11.43
2023-05-04T12:11:25.248Z,13.15
2023-05-04T12:14:04.538Z,11.18
2023-05-04T12:16:31.245Z,13.02
2023-05-04T12:19:13.426Z,12.32
2023-05-04T12:21:51.705Z,11.27
2023-05-04T12:24:19.910Z,11.48
2023-05-04T12:26:46.425Z,9.63
2023-05-04T12:29:13.027Z,10.65
2023-05-04T12:31:39.534Z,12.75
2023-05-04T12:34:06.056Z,11.68
2023-05-04T12:36:32.505Z,8.68
2023-05-04T12:38:58.930Z,12.07
2023-05-04T12:41:25.370Z,7.15
2023-05-04T12:43:51.856Z,9.13
2023-05-04T12:46:21.377Z,8.25
2023-05-04T12:48:48.061Z,9.15
2023-05-04T12:51:14.551Z,9.13
2023-05-04T12:53:41.789Z,8.52
2023-05-04T12:56:08.180Z,7.63
2023-05-04T12:58:34.667Z,10.13
2023-05-04T13:01:01.254Z,8.70
2023-05-04T13:03:27.968Z,8.43
2023-05-04T13:05:54.692Z,10.05
2023-05-04T13:08:21.215Z,9.25
2023-05-04T13:10:47.954Z,7.57
2023-05-04T13:13:17.982Z,8.13
2023-05-04T13:15:45.367Z,9.40
2023-05-04T13:18:12.994Z,11.80
2023-05-04T13:20:40.204Z,7.28
2023-05-04T13:23:06.741Z,6.40
2023-05-04T13:25:33.295Z,7.43
2023-05-04T13:27:59.752Z,9.27
2023-05-04T13:30:26.262Z,7.47
2023-05-04T13:32:52.966Z,11.02
2023-05-04T13:35:19.585Z,9.63
2023-05-04T13:37:46.463Z,9.27
2023-05-04T13:40:13.991Z,7.38
2023-05-04T13:42:40.486Z,7.63
2023-05-04T13:45:07.765Z,8.80
2023-05-04T13:47:36.989Z,8.00
2023-05-04T13:50:04.155Z,12.63
2023-05-04T13:52:32.074Z,8.80
2023-05-04T13:54:59.348Z,12.30
2023-05-04T13:57:27.842Z,7.20
2023-05-04T14:00:06.382Z,8.82
2023-05-04T14:02:40.234Z,8.30
2023-05-04T14:05:07.958Z,10.35
2023-05-04T14:07:35.084Z,9.38
2023-05-04T14:10:01.813Z,7.63
2023-05-04T14:12:28.872Z,6.82
2023-05-04T14:14:55.866Z,10.52
2023-05-04T14:17:22.597Z,13.77
2023-05-04T14:19:49.167Z,9.10
2023-05-04T14:22:15.605Z,8.68
2023-05-04T14:24:42.084Z,11.60
2023-05-04T14:27:08.516Z,10.98
2023-05-04T14:29:35.359Z,9.43
2023-05-04T14:32:01.934Z,8.32
2023-05-04T14:34:28.400Z,9.50
2023-05-04T14:36:54.843Z,8.20
2023-05-04T14:39:21.259Z,8.70
2023-05-04T14:41:48.024Z,9.85
2023-05-04T14:44:14.572Z,10.90
2023-05-04T14:46:41.289Z,13.88
2023-05-04T14:49:07.735Z,12.00
2023-05-04T14:51:35.458Z,10.32
2023-05-04T14:54:02.082Z,9.43
2023-05-04T14:56:28.629Z,6.95
2023-05-04T14:58:57.189Z,8.98
2023-05-04T15:01:25.124Z,10.65
2023-05-04T15:03:51.795Z,8.43
2023-05-04T15:06:18.412Z,9.50
2023-05-04T15:08:44.888Z,9.85
2023-05-04T15:11:11.364Z,11.68
2023-05-04T15:13:37.758Z,13.02
2023-05-04T15:16:04.662Z,10.82
2023-05-04T15:18:31.514Z,7.40
2023-05-04T15:20:57.981Z,10.10
2023-05-04T15:23:24.392Z,7.53
2023-05-04T15:25:50.934Z,9.00
2023-05-04T15:28:17.464Z,6.85
2023-05-04T15:30:43.947Z,6.38
2023-05-04T15:33:10.659Z,11.40
2023-05-04T15:35:37.125Z,10.13
2023-05-04T15:38:03.602Z,8.40
2023-05-04T15:40:30.088Z,7.18
2023-05-04T15:42:56.573Z,10.40
2023-05-04T15:45:23.055Z,7.43
2023-05-04T15:47:49.614Z,8.88
2023-05-04T15:50:16.138Z,9.20
2023-05-04T15:52:42.674Z,9.15
2023-05-04T15:55:23.812Z,16.52
2023-05-04T15:57:52.505Z,10.07
2023-05-04T16:00:19.493Z,24.67
2023-05-04T16:02:46.149Z,29.02
2023-05-04T16:05:12.689Z,14.10
2023-05-04T16:07:39.273Z,14.15
2023-05-04T16:10:06.671Z,23.02
2023-05-04T16:12:33.392Z,12.10
2023-05-04T16:15:00.050Z,10.02
2023-05-04T16:17:28.884Z,10.48
2023-05-04T16:19:55.342Z,12.43
2023-05-04T16:22:21.790Z,14.13
2023-05-04T16:24:48.206Z,9.88
2023-05-04T16:27:14.610Z,9.18
2023-05-04T16:29:41.062Z,11.65
2023-05-04T16:32:08.605Z,10.75
2023-05-04T16:34:35.234Z,10.13
2023-05-04T16:37:02.206Z,9.38
2023-05-04T16:39:34.191Z,10.18
2023-05-04T16:42:02.196Z,13.93
2023-05-04T16:44:31.785Z,8.27
2023-05-04T16:46:58.976Z,13.23
2023-05-04T16:49:26.414Z,12.55
2023-05-04T16:51:56.019Z,13.68
2023-05-04T16:54:23.988Z,8.82
2023-05-04T16:56:50.707Z,14.20
2023-05-04T16:59:17.194Z,11.98
2023-05-04T17:01:44.096Z,13.68
2023-05-04T17:04:10.860Z,11.65
2023-05-04T17:06:37.844Z,11.50
2023-05-04T17:09:04.824Z,12.70
2023-05-04T17:11:32.178Z,13.13
2023-05-04T17:13:59.347Z,15.30
2023-05-04T17:16:26.021Z,11.98
2023-05-04T17:18:52.513Z,14.23
2023-05-04T17:21:18.974Z,14.27
2023-05-04T17:23:45.533Z,13.65
2023-05-04T17:26:11.971Z,11.90
2023-05-04T17:28:38.508Z,18.58
2023-05-04T17:31:05.022Z,10.13
2023-05-04T17:33:31.474Z,12.48
2023-05-04T17:35:58.231Z,10.85
2023-05-04T17:38:24.687Z,38.30
2023-05-04T17:40:51.242Z,20.17
2023-05-04T17:43:17.961Z,17.08
2023-05-04T17:45:44.442Z,9.55
2023-05-04T17:48:11.008Z,15.60
2023-05-04T17:50:37.856Z,12.15
2023-05-04T17:53:04.309Z,12.20
2023-05-04T17:55:30.810Z,12.75
2023-05-04T17:57:57.261Z,21.58
2023-05-04T18:00:23.899Z,13.73
2023-05-04T18:02:50.443Z,11.27
2023-05-04T18:05:16.954Z,13.77
2023-05-04T18:07:43.450Z,21.95
2023-05-04T18:10:10.627Z,17.38
2023-05-04T18:12:38.421Z,20.00
2023-05-04T18:15:08.203Z,14.13
2023-05-04T18:17:35.860Z,15.38
2023-05-04T18:20:02.402Z,9.98
2023-05-04T18:22:28.822Z,11.35
2023-05-04T18:24:55.501Z,15.10
2023-05-04T18:27:22.233Z,22.13
2023-05-04T18:29:48.755Z,31.23
2023-05-04T18:32:15.303Z,27.10
2023-05-04T18:34:42.093Z,60.05
2023-05-04T18:37:08.565Z,23.88
2023-05-04T18:39:34.975Z,35.72
2023-05-04T18:42:01.791Z,48.58
2023-05-04T18:44:28.263Z,94.57
2023-05-04T18:46:54.685Z,46.13
2023-05-04T18:49:21.168Z,24.80
2023-05-04T18:51:47.686Z,21.50
2023-05-04T18:54:15.477Z,16.83
2023-05-04T18:56:41.934Z,16.15
2023-05-04T18:59:09.525Z,18.30
2023-05-04T19:01:36.745Z,16.33
2023-05-04T19:04:04.589Z,19.50
2023-05-04T19:06:32.503Z,15.45
2023-05-04T19:08:59.699Z,16.83
2023-05-04T19:11:26.466Z,16.63
2023-05-04T19:13:53.162Z,13.68
2023-05-04T19:16:19.630Z,11.50
2023-05-04T19:18:46.152Z,14.63
2023-05-04T19:21:12.602Z,15.48
2023-05-04T19:23:39.102Z,17.65
2023-05-04T19:26:05.904Z,13.25
2023-05-04T19:28:32.374Z,12.15
2023-05-04T19:30:58.901Z,16.45
2023-05-04T19:33:33.467Z,15.93
2023-05-04T19:36:07.218Z,13.27
2023-05-04T19:38:33.609Z,16.45
2023-05-04T19:41:01.657Z,12.07
2023-05-04T19:43:28.046Z,17.38
2023-05-04T19:45:55.752Z,11.25
2023-05-04T19:48:22.232Z,16.38
2023-05-04T19:50:48.797Z,11.77
2023-05-04T19:53:16.622Z,13.93
2023-05-04T19:55:43.082Z,11.35
2023-05-04T19:58:10.718Z,12.95
2023-05-04T20:00:38.116Z,15.40
2023-05-04T20:03:05.182Z,15.73
2023-05-04T20:05:31.664Z,12.98
2023-05-04T20:07:58.181Z,14.23
2023-05-04T20:10:25.330Z,12.63
2023-05-04T20:12:51.790Z,15.10
2023-05-04T20:15:18.261Z,15.32
2023-05-04T20:17:44.729Z,15.00
2023-05-04T20:20:11.832Z,10.55
2023-05-04T20:22:38.438Z,14.52
2023-05-04T20:25:05.250Z,15.40
2023-05-04T20:27:31.725Z,15.43
2023-05-04T20:29:58.802Z,12.68
2023-05-04T20:32:25.438Z,13.40
2023-05-04T20:34:51.911Z,14.23
2023-05-04T20:37:18.302Z,14.60
2023-05-04T20:39:45.085Z,15.27
2023-05-04T20:42:11.521Z,13.48
2023-05-04T20:44:38.461Z,16.00
2023-05-04T20:47:05.549Z,17.70
2023-05-04T20:49:32.134Z,14.50
2023-05-04T20:51:58.523Z,14.32
2023-05-04T20:54:25.003Z,13.95
2023-05-04T20:56:51.411Z,15.02
2023-05-04T20:59:17.860Z,12.55
2023-05-04T21:01:44.371Z,14.85
2023-05-04T21:04:11.088Z,13.57
2023-05-04T21:06:37.516Z,13.60
2023-05-04T21:09:04.257Z,16.70
2023-05-04T21:11:30.702Z,17.80
2023-05-04T21:13:57.209Z,16.70
2023-05-04T21:16:23.705Z,12.15
2023-05-04T21:18:50.179Z,15.57
2023-05-04T21:21:16.812Z,13.27
2023-05-04T21:23:43.230Z,18.45
2023-05-04T21:26:09.687Z,12.45
2023-05-04T21:28:36.577Z,11.35
2023-05-04T21:31:07.430Z,15.55
2023-05-04T21:33:35.257Z,15.60
2023-05-04T21:36:14.241Z,12.73
2023-05-04T21:38:41.074Z,12.23
2023-05-04T21:41:14.577Z,14.70
2023-05-04T21:43:41.578Z,12.98
2023-05-04T21:46:08.662Z,15.15
2023-05-04T21:48:35.882Z,18.38
2023-05-04T21:51:02.401Z,16.73
2023-05-04T21:53:33.179Z,16.80
2023-05-04T21:56:00.778Z,13.10
2023-05-04T21:58:27.245Z,15.05
2023-05-04T22:00:54.782Z,12.82
2023-05-04T22:03:21.711Z,16.23
2023-05-04T22:05:55.170Z,15.63
2023-05-04T22:08:22.163Z,17.75
2023-05-04T22:10:57.077Z,14.02
2023-05-04T22:13:23.695Z,22.25
2023-05-04T22:15:50.997Z,18.70
2023-05-04T22:18:17.798Z,14.88
2023-05-04T22:20:44.417Z,17.27
2023-05-04T22:23:11.077Z,17.45
2023-05-04T22:25:37.986Z,17.38
2023-05-04T22:28:04.741Z,13.95
2023-05-04T22:30:31.382Z,13.98
2023-05-04T22:32:58.200Z,18.05
2023-05-04T22:35:24.766Z,17.73
2023-05-04T22:37:51.356Z,16.92
2023-05-04T22:40:18.120Z,14.20
2023-05-04T22:42:47.549Z,16.08
2023-05-04T22:45:14.733Z,21.23
2023-05-04T22:47:42.204Z,18.90
2023-05-04T22:50:09.958Z,16.55
2023-05-04T22:52:37.527Z,17.17
2023-05-04T22:55:04.678Z,15.13
2023-05-04T22:57:31.550Z,15.63
2023-05-04T22:59:58.024Z,15.02
2023-05-04T23:02:24.708Z,16.58
2023-05-04T23:04:51.227Z,18.85
2023-05-04T23:07:17.787Z,13.98
2023-05-04T23:09:45.621Z,15.95
2023-05-04T23:12:12.718Z,14.57
2023-05-04T23:14:39.239Z,16.27
2023-05-04T23:17:05.718Z,18.27
2023-05-04T23:19:32.603Z,14.73
2023-05-04T23:21:59.248Z,18.40
2023-05-04T23:24:25.859Z,18.40
2023-05-04T23:26:52.405Z,18.15
2023-05-04T23:29:21.705Z,14.88
2023-05-04T23:31:48.155Z,16.83
2023-05-04T23:34:14.616Z,16.35
2023-05-04T23:36:41.151Z,19.17
2023-05-04T23:39:07.766Z,18.23
2023-05-04T23:41:34.194Z,20.52
2023-05-04T23:44:01.766Z,21.35
2023-05-04T23:46:28.256Z,20.67
2023-05-04T23:48:54.938Z,21.52
2023-05-04T23:51:21.428Z,22.08
2023-05-04T23:53:48.160Z,20.85
2023-05-04T23:56:14.766Z,18.80
2023-05-04T23:58:41.968Z,16.92
